sensor_id;sensor_type;location;lat;lon;timestamp;temperature;humidity
6863;DHT22;3470;48.738;9.616;2023-12-22T10:36:17;6.70;99.90
6863;DHT22;3470;48.738;9.616;2023-12-22T10:38:43;6.90;99.90
6863;DHT22;3470;48.738;9.616;2023-12-22T10:41:10;7.00;99.90
6863;DHT22;3470;48.738;9.616;2023-12-22T10:43:39;7.10;99.90
6863;DHT22;3470;48.738;9.616;2023-12-22T10:46:06;7.10;99.90
6863;DHT22;3470;48.738;9.616;2023-12-22T10:48:33;7.10;99.90
6863;DHT22;3470;48.738;9.616;2023-12-22T10:50:59;7.10;99.90
6863;DHT22;3470;48.738;9.616;2023-12-22T10:53:24;7.20;99.90
6863;DHT22;3470;48.738;9.616;2023-12-22T10:55:51;7.20;99.90
6863;DHT22;3470;48.738;9.616;2023-12-22T10:58:17;7.30;99.90
6863;DHT22;3470;48.738;9.616;2023-12-22T11:00:45;7.30;99.90
6863;DHT22;3470;48.738;9.616;2023-12-22T11:03:16;7.20;99.90
6863;DHT22;3470;48.738;9.616;2023-12-22T11:05:45;7.20;99.90
6863;DHT22;3470;48.738;9.616;2023-12-22T11:08:11;7.20;99.90
6863;DHT22;3470;48.738;9.616;2023-12-22T11:10:41;7.30;99.90
6863;DHT22;3470;48.738;9.616;2023-12-22T11:13:09;7.30;99.90
6863;DHT22;3470;48.738;9.616;2023-12-22T11:15:36;7.30;99.90
6863;DHT22;3470;48.738;9.616;2023-12-22T11:18:04;7.30;99.90
6863;DHT22;3470;48.738;9.616;2023-12-22T11:20:31;7.30;99.90
6863;DHT22;3470;48.738;9.616;2023-12-22T11:22:59;7.30;99.90
6863;DHT22;3470;48.738;9.616;2023-12-22T11:25:26;7.20;99.90
6863;DHT22;3470;48.738;9.616;2023-12-22T11:27:52;7.20;99.90
6863;DHT22;3470;48.738;9.616;2023-12-22T11:30:22;7.20;99.90
6863;DHT22;3470;48.738;9.616;2023-12-22T11:32:49;7.10;99.90
6863;DHT22;3470;48.738;9.616;2023-12-22T11:35:16;7.10;99.90
6863;DHT22;3470;48.738;9.616;2023-12-22T11:37:43;7.00;99.90
6863;DHT22;3470;48.738;9.616;2023-12-22T11:40:09;6.90;99.90
6863;DHT22;3470;48.738;9.616;2023-12-22T11:42:38;6.90;99.90
6863;DHT22;3470;48.738;9.616;2023-12-22T11:45:10;6.80;99.90
6863;DHT22;3470;48.738;9.616;2023-12-22T11:47:37;6.60;99.90
6863;DHT22;3470;48.738;9.616;2023-12-22T11:50:04;6.60;99.90
6863;DHT22;3470;48.738;9.616;2023-12-22T11:52:29;6.50;99.90
6863;DHT22;3470;48.738;9.616;2023-12-22T11:54:56;6.50;99.90
6863;DHT22;3470;48.738;9.616;2023-12-22T11:59:56;6.50;99.90
6863;DHT22;3470;48.738;9.616;2023-12-22T12:02:22;6.50;99.90
6863;DHT22;3470;48.738;9.616;2023-12-22T12:04:49;6.50;99.90
6863;DHT22;3470;48.738;9.616;2023-12-22T12:10:05;6.40;99.90
6863;DHT22;3470;48.738;9.616;2023-12-22T12:12:31;6.20;99.90
6863;DHT22;3470;48.738;9.616;2023-12-22T12:15:07;6.10;99.90
6863;DHT22;3470;48.738;9.616;2023-12-22T12:17:33;5.90;99.90
6863;DHT22;3470;48.738;9.616;2023-12-22T12:19:59;5.90;99.90
6863;DHT22;3470;48.738;9.616;2023-12-22T12:22:25;5.90;99.90
6863;DHT22;3470;48.738;9.616;2023-12-22T12:24:52;5.90;99.90
6863;DHT22;3470;48.738;9.616;2023-12-22T12:27:19;6.00;99.90
6863;DHT22;3470;48.738;9.616;2023-12-22T12:29:45;5.90;99.90
6863;DHT22;3470;48.738;9.616;2023-12-22T12:32:14;6.00;99.90
6863;DHT22;3470;48.738;9.616;2023-12-22T12:34:43;6.00;99.90
6863;DHT22;3470;48.738;9.616;2023-12-22T12:37:09;6.00;99.90
6863;DHT22;3470;48.738;9.616;2023-12-22T12:39:35;6.00;99.90
6863;DHT22;3470;48.738;9.616;2023-12-22T12:42:02;6.00;99.90
6863;DHT22;3470;48.738;9.616;2023-12-22T12:44:30;6.00;99.90
6863;DHT22;3470;48.738;9.616;2023-12-22T12:46:59;6.00;99.90
6863;DHT22;3470;48.738;9.616;2023-12-22T12:49:25;6.00;99.90
6863;DHT22;3470;48.738;9.616;2023-12-22T12:51:53;6.00;99.90
6863;DHT22;3470;48.738;9.616;2023-12-22T12:54:19;6.10;99.90
6863;DHT22;3470;48.738;9.616;2023-12-22T12:56:46;6.10;99.90
6863;DHT22;3470;48.738;9.616;2023-12-22T12:59:16;6.10;99.90
6863;DHT22;3470;48.738;9.616;2023-12-22T13:01:44;6.10;99.90
6863;DHT22;3470;48.738;9.616;2023-12-22T13:04:10;6.10;99.90
6863;DHT22;3470;48.738;9.616;2023-12-22T13:06:45;6.10;99.90
6863;DHT22;3470;48.738;9.616;2023-12-22T13:09:12;6.10;99.90
6863;DHT22;3470;48.738;9.616;2023-12-22T13:11:42;6.10;99.90
6863;DHT22;3470;48.738;9.616;2023-12-22T13:14:11;6.10;99.90
6863;DHT22;3470;48.738;9.616;2023-12-22T13:16:39;6.20;99.90
6863;DHT22;3470;48.738;9.616;2023-12-22T13:19:05;6.10;99.90
6863;DHT22;3470;48.738;9.616;2023-12-22T13:21:31;6.00;99.90
6863;DHT22;3470;48.738;9.616;2023-12-22T13:24:25;6.00;99.90
6863;DHT22;3470;48.738;9.616;2023-12-22T13:27:03;6.00;99.90
6863;DHT22;3470;48.738;9.616;2023-12-22T13:29:42;6.10;99.90
6863;DHT22;3470;48.738;9.616;2023-12-22T13:32:08;6.10;99.90
6863;DHT22;3470;48.738;9.616;2023-12-22T13:34:33;6.10;99.90
6863;DHT22;3470;48.738;9.616;2023-12-22T13:37:02;6.10;99.90
6863;DHT22;3470;48.738;9.616;2023-12-22T13:39:28;6.20;99.90
6863;DHT22;3470;48.738;9.616;2023-12-22T13:41:54;6.20;99.90
6863;DHT22;3470;48.738;9.616;2023-12-22T13:44:20;6.30;99.90
6863;DHT22;3470;48.738;9.616;2023-12-22T13:46:46;6.30;99.90
6863;DHT22;3470;48.738;9.616;2023-12-22T13:49:12;6.30;99.90
6863;DHT22;3470;48.738;9.616;2023-12-22T13:51:44;6.30;99.90
6863;DHT22;3470;48.738;9.616;2023-12-22T13:54:10;6.30;99.90
6863;DHT22;3470;48.738;9.616;2023-12-22T13:56:37;6.40;99.90
6863;DHT22;3470;48.738;9.616;2023-12-22T13:59:05;6.40;99.90
6863;DHT22;3470;48.738;9.616;2023-12-22T14:01:31;6.40;99.90
6863;DHT22;3470;48.738;9.616;2023-12-22T14:03:58;6.50;99.90
6863;DHT22;3470;48.738;9.616;2023-12-22T14:06:25;6.60;99.90
6863;DHT22;3470;48.738;9.616;2023-12-22T14:08:51;6.60;99.90
6863;DHT22;3470;48.738;9.616;2023-12-22T14:11:16;6.70;99.90
6863;DHT22;3470;48.738;9.616;2023-12-22T14:13:42;6.90;99.90
6863;DHT22;3470;48.738;9.616;2023-12-22T14:16:08;7.00;99.90
6863;DHT22;3470;48.738;9.616;2023-12-22T14:18:34;7.10;99.90
6863;DHT22;3470;48.738;9.616;2023-12-22T14:21:00;7.30;99.90
6863;DHT22;3470;48.738;9.616;2023-12-22T14:23:26;7.30;99.90
6863;DHT22;3470;48.738;9.616;2023-12-22T14:25:51;7.40;99.90
6863;DHT22;3470;48.738;9.616;2023-12-22T14:28:17;7.40;99.90
6863;DHT22;3470;48.738;9.616;2023-12-22T18:11:56;9.10;99.90
6863;DHT22;3470;48.738;9.616;2023-12-22T18:14:22;9.10;99.90
6863;DHT22;3470;48.738;9.616;2023-12-22T18:16:47;9.10;99.90
6863;DHT22;3470;48.738;9.616;2023-12-22T18:19:13;9.10;99.90
6863;DHT22;3470;48.738;9.616;2023-12-22T18:21:39;9.20;99.90
6863;DHT22;3470;48.738;9.616;2023-12-22T18:24:05;9.10;99.90
6863;DHT22;3470;48.738;9.616;2023-12-22T18:26:31;9.10;99.90
6863;DHT22;3470;48.738;9.616;2023-12-22T18:28:56;9.00;99.90
6863;DHT22;3470;48.738;9.616;2023-12-22T18:31:22;9.00;99.90
6863;DHT22;3470;48.738;9.616;2023-12-22T18:33:48;9.10;99.90
6863;DHT22;3470;48.738;9.616;2023-12-22T18:36:14;9.10;99.90
6863;DHT22;3470;48.738;9.616;2023-12-22T18:38:40;9.20;99.90
6863;DHT22;3470;48.738;9.616;2023-12-22T18:41:05;9.10;99.90
6863;DHT22;3470;48.738;9.616;2023-12-22T18:43:31;9.20;99.90
6863;DHT22;3470;48.738;9.616;2023-12-22T18:45:57;9.20;99.90
6863;DHT22;3470;48.738;9.616;2023-12-22T18:48:22;9.20;99.90
6863;DHT22;3470;48.738;9.616;2023-12-22T18:50:48;9.10;99.90
6863;DHT22;3470;48.738;9.616;2023-12-22T18:53:13;9.10;99.90
6863;DHT22;3470;48.738;9.616;2023-12-22T18:55:39;9.10;99.90
6863;DHT22;3470;48.738;9.616;2023-12-22T18:58:05;9.10;99.90
6863;DHT22;3470;48.738;9.616;2023-12-22T19:00:31;9.10;99.90
6863;DHT22;3470;48.738;9.616;2023-12-22T19:02:57;9.10;99.90
6863;DHT22;3470;48.738;9.616;2023-12-22T19:05:23;9.00;99.90
6863;DHT22;3470;48.738;9.616;2023-12-22T19:07:49;9.10;99.90
6863;DHT22;3470;48.738;9.616;2023-12-22T19:10:15;9.10;99.90
6863;DHT22;3470;48.738;9.616;2023-12-22T19:12:40;9.10;99.90
6863;DHT22;3470;48.738;9.616;2023-12-22T19:15:07;9.00;99.90
6863;DHT22;3470;48.738;9.616;2023-12-22T19:17:33;9.00;99.90
6863;DHT22;3470;48.738;9.616;2023-12-22T19:20:03;9.00;99.90
6863;DHT22;3470;48.738;9.616;2023-12-22T19:22:30;9.00;99.90
6863;DHT22;3470;48.738;9.616;2023-12-22T19:24:56;9.00;99.90
6863;DHT22;3470;48.738;9.616;2023-12-22T19:27:22;9.10;99.90
6863;DHT22;3470;48.738;9.616;2023-12-22T19:29:48;9.10;99.90
6863;DHT22;3470;48.738;9.616;2023-12-22T19:32:13;9.10;99.90
6863;DHT22;3470;48.738;9.616;2023-12-22T19:34:39;9.00;99.90
6863;DHT22;3470;48.738;9.616;2023-12-22T19:37:04;9.10;99.90
6863;DHT22;3470;48.738;9.616;2023-12-22T19:39:30;9.00;99.90
6863;DHT22;3470;48.738;9.616;2023-12-22T19:41:56;9.00;99.90
6863;DHT22;3470;48.738;9.616;2023-12-22T19:44:22;9.00;99.90
6863;DHT22;3470;48.738;9.616;2023-12-22T19:46:48;9.00;99.90
6863;DHT22;3470;48.738;9.616;2023-12-22T19:49:13;9.00;99.90
6863;DHT22;3470;48.738;9.616;2023-12-22T19:51:39;9.00;99.90
6863;DHT22;3470;48.738;9.616;2023-12-22T19:54:04;9.00;99.90
6863;DHT22;3470;48.738;9.616;2023-12-22T19:56:30;9.10;99.90
6863;DHT22;3470;48.738;9.616;2023-12-22T19:58:56;9.10;99.90
6863;DHT22;3470;48.738;9.616;2023-12-22T20:01:23;9.00;99.90
6863;DHT22;3470;48.738;9.616;2023-12-22T20:03:49;9.10;99.90
6863;DHT22;3470;48.738;9.616;2023-12-22T20:06:15;9.00;99.90
6863;DHT22;3470;48.738;9.616;2023-12-22T20:08:40;9.00;99.90
6863;DHT22;3470;48.738;9.616;2023-12-22T20:11:07;8.90;99.90
6863;DHT22;3470;48.738;9.616;2023-12-22T20:13:33;9.00;99.90
6863;DHT22;3470;48.738;9.616;2023-12-22T20:16:00;9.00;99.90
6863;DHT22;3470;48.738;9.616;2023-12-22T20:18:26;8.90;99.90
6863;DHT22;3470;48.738;9.616;2023-12-22T20:20:52;8.90;99.90
6863;DHT22;3470;48.738;9.616;2023-12-22T20:23:17;8.90;99.90
6863;DHT22;3470;48.738;9.616;2023-12-22T20:25:43;8.90;99.90
6863;DHT22;3470;48.738;9.616;2023-12-22T20:28:09;8.90;99.90
6863;DHT22;3470;48.738;9.616;2023-12-22T20:30:34;8.90;99.90
6863;DHT22;3470;48.738;9.616;2023-12-22T20:33:00;8.90;99.90
6863;DHT22;3470;48.738;9.616;2023-12-22T20:35:26;8.90;99.90
6863;DHT22;3470;48.738;9.616;2023-12-22T20:37:51;8.90;99.90
6863;DHT22;3470;48.738;9.616;2023-12-22T20:40:17;8.90;99.90
6863;DHT22;3470;48.738;9.616;2023-12-22T20:42:42;9.00;99.90
6863;DHT22;3470;48.738;9.616;2023-12-22T20:45:08;8.90;99.90
6863;DHT22;3470;48.738;9.616;2023-12-22T20:47:34;8.90;99.90
6863;DHT22;3470;48.738;9.616;2023-12-22T20:49:59;8.90;99.90
6863;DHT22;3470;48.738;9.616;2023-12-22T20:52:25;8.90;99.90
6863;DHT22;3470;48.738;9.616;2023-12-22T20:54:51;8.90;99.90
6863;DHT22;3470;48.738;9.616;2023-12-22T20:57:16;8.90;99.90
6863;DHT22;3470;48.738;9.616;2023-12-22T20:59:42;8.90;99.90
6863;DHT22;3470;48.738;9.616;2023-12-22T21:02:07;8.90;99.90
6863;DHT22;3470;48.738;9.616;2023-12-22T21:04:37;8.90;99.90
6863;DHT22;3470;48.738;9.616;2023-12-22T21:07:04;8.90;99.90
6863;DHT22;3470;48.738;9.616;2023-12-22T21:09:30;8.80;99.90
6863;DHT22;3470;48.738;9.616;2023-12-22T21:11:56;8.70;99.90
6863;DHT22;3470;48.738;9.616;2023-12-22T21:14:21;8.80;99.90
6863;DHT22;3470;48.738;9.616;2023-12-22T21:16:47;8.80;99.90
6863;DHT22;3470;48.738;9.616;2023-12-22T21:19:13;8.80;99.90
6863;DHT22;3470;48.738;9.616;2023-12-22T21:21:43;8.80;99.90
6863;DHT22;3470;48.738;9.616;2023-12-22T21:24:09;8.80;99.90
6863;DHT22;3470;48.738;9.616;2023-12-22T21:26:34;8.80;99.90
6863;DHT22;3470;48.738;9.616;2023-12-22T21:29:00;8.90;99.90
6863;DHT22;3470;48.738;9.616;2023-12-22T21:31:26;8.80;99.90
6863;DHT22;3470;48.738;9.616;2023-12-22T21:33:52;8.80;99.90
6863;DHT22;3470;48.738;9.616;2023-12-22T21:36:21;8.80;99.90
6863;DHT22;3470;48.738;9.616;2023-12-22T21:38:48;8.80;99.90
6863;DHT22;3470;48.738;9.616;2023-12-22T21:41:19;8.80;99.90
6863;DHT22;3470;48.738;9.616;2023-12-22T21:43:45;8.80;99.90
6863;DHT22;3470;48.738;9.616;2023-12-22T21:46:11;8.80;99.90
6863;DHT22;3470;48.738;9.616;2023-12-22T21:48:40;8.80;99.90
6863;DHT22;3470;48.738;9.616;2023-12-22T21:51:07;8.80;99.90
6863;DHT22;3470;48.738;9.616;2023-12-22T21:53:33;8.70;99.90
6863;DHT22;3470;48.738;9.616;2023-12-22T21:55:59;8.70;99.90
6863;DHT22;3470;48.738;9.616;2023-12-22T21:58:24;8.60;99.90
6863;DHT22;3470;48.738;9.616;2023-12-22T22:00:50;8.50;99.90
6863;DHT22;3470;48.738;9.616;2023-12-22T22:03:22;8.40;99.90
6863;DHT22;3470;48.738;9.616;2023-12-22T22:05:47;8.40;99.90
6863;DHT22;3470;48.738;9.616;2023-12-22T22:08:13;8.20;99.90
6863;DHT22;3470;48.738;9.616;2023-12-22T22:10:39;7.90;99.90
6863;DHT22;3470;48.738;9.616;2023-12-22T22:13:04;7.80;99.90
6863;DHT22;3470;48.738;9.616;2023-12-22T22:15:30;7.80;99.90
6863;DHT22;3470;48.738;9.616;2023-12-22T22:17:56;7.80;99.90
6863;DHT22;3470;48.738;9.616;2023-12-22T22:20:21;7.80;99.90
6863;DHT22;3470;48.738;9.616;2023-12-22T22:22:47;7.80;99.90
6863;DHT22;3470;48.738;9.616;2023-12-22T22:25:13;7.80;99.90
6863;DHT22;3470;48.738;9.616;2023-12-22T22:27:39;7.80;99.90
6863;DHT22;3470;48.738;9.616;2023-12-22T22:30:05;8.00;99.90
6863;DHT22;3470;48.738;9.616;2023-12-22T22:32:32;8.00;99.90
6863;DHT22;3470;48.738;9.616;2023-12-22T22:34:57;7.90;99.90
6863;DHT22;3470;48.738;9.616;2023-12-22T22:37:23;8.00;99.90
6863;DHT22;3470;48.738;9.616;2023-12-22T22:39:49;8.10;99.90
6863;DHT22;3470;48.738;9.616;2023-12-22T22:42:14;8.10;99.90
6863;DHT22;3470;48.738;9.616;2023-12-22T22:44:40;8.20;99.90
6863;DHT22;3470;48.738;9.616;2023-12-22T22:47:13;8.10;99.90
6863;DHT22;3470;48.738;9.616;2023-12-22T22:49:39;8.20;99.90
6863;DHT22;3470;48.738;9.616;2023-12-22T22:52:08;8.30;99.90
6863;DHT22;3470;48.738;9.616;2023-12-22T22:54:34;8.30;99.90
6863;DHT22;3470;48.738;9.616;2023-12-22T22:57:03;8.30;99.90
6863;DHT22;3470;48.738;9.616;2023-12-22T22:59:29;8.40;99.90
6863;DHT22;3470;48.738;9.616;2023-12-22T23:01:55;8.50;99.90
6863;DHT22;3470;48.738;9.616;2023-12-22T23:04:20;8.50;99.90
6863;DHT22;3470;48.738;9.616;2023-12-22T23:06:47;8.50;99.90
6863;DHT22;3470;48.738;9.616;2023-12-22T23:09:13;8.60;99.90
6863;DHT22;3470;48.738;9.616;2023-12-22T23:11:39;8.60;99.90
6863;DHT22;3470;48.738;9.616;2023-12-22T23:14:05;8.60;99.90
6863;DHT22;3470;48.738;9.616;2023-12-22T23:16:31;8.50;99.90
6863;DHT22;3470;48.738;9.616;2023-12-22T23:18:56;8.60;99.90
6863;DHT22;3470;48.738;9.616;2023-12-22T23:21:22;8.60;99.90
6863;DHT22;3470;48.738;9.616;2023-12-22T23:23:48;8.60;99.90
6863;DHT22;3470;48.738;9.616;2023-12-22T23:26:14;8.50;99.90
6863;DHT22;3470;48.738;9.616;2023-12-22T23:28:39;8.50;99.90
6863;DHT22;3470;48.738;9.616;2023-12-22T23:31:06;8.50;99.90
6863;DHT22;3470;48.738;9.616;2023-12-22T23:33:32;8.50;99.90
6863;DHT22;3470;48.738;9.616;2023-12-22T23:35:58;8.40;99.90
6863;DHT22;3470;48.738;9.616;2023-12-22T23:38:23;8.50;99.90
6863;DHT22;3470;48.738;9.616;2023-12-22T23:40:50;8.50;99.90
6863;DHT22;3470;48.738;9.616;2023-12-22T23:43:16;8.50;99.90
6863;DHT22;3470;48.738;9.616;2023-12-22T23:45:42;8.40;99.90
6863;DHT22;3470;48.738;9.616;2023-12-22T23:48:07;8.50;99.90
6863;DHT22;3470;48.738;9.616;2023-12-22T23:50:33;8.30;99.90
6863;DHT22;3470;48.738;9.616;2023-12-22T23:52:58;8.40;99.90
6863;DHT22;3470;48.738;9.616;2023-12-22T23:55:24;8.30;99.90
6863;DHT22;3470;48.738;9.616;2023-12-22T23:57:50;8.20;99.90
